createdAt,value
2018-12-05T00:00:54.546Z,149.40
2018-12-05T00:01:54.725Z,137.80
2018-12-05T00:02:54.898Z,178.50
2018-12-05T00:03:55.077Z,188.10
2018-12-05T00:04:55.254Z,87.20
2018-12-05T00:05:55.436Z,37.00
2018-12-05T00:06:55.648Z,108.30
2018-12-05T00:07:55.824Z,111.90
2018-12-05T00:08:56.001Z,92.00
2018-12-05T00:09:56.187Z,108.60
2018-12-05T00:10:56.356Z,151.40
2018-12-05T00:11:56.549Z,71.50
2018-12-05T00:12:56.725Z,68.10
2018-12-05T00:13:56.903Z,76.10
2018-12-05T00:14:57.082Z,126.10
2018-12-05T00:15:57.270Z,84.40
2018-12-05T00:16:57.451Z,168.10
2018-12-05T00:17:57.625Z,123.60
2018-12-05T00:18:57.802Z,64.50
2018-12-05T00:19:57.980Z,120.30
2018-12-05T00:20:58.162Z,112.90
2018-12-05T00:21:58.340Z,134.20
2018-12-05T00:22:58.513Z,89.10
2018-12-05T00:23:58.766Z,108.70
2018-12-05T00:24:58.873Z,118.40
2018-12-05T00:25:59.060Z,78.60
2018-12-05T00:26:59.233Z,39.20
2018-12-05T00:27:59.414Z,67.00
2018-12-05T00:28:59.594Z,90.00
2018-12-05T00:29:59.774Z,36.90
2018-12-05T00:30:59.960Z,77.90
2018-12-05T00:32:00.138Z,76.90
2018-12-05T00:33:00.317Z,63.40
2018-12-05T00:34:00.505Z,44.00
2018-12-05T00:35:00.683Z,29.40
2018-12-05T00:36:00.871Z,33.40
2018-12-05T00:37:01.046Z,30.70
2018-12-05T00:38:01.221Z,15.70
2018-12-05T00:39:01.400Z,17.30
2018-12-05T00:40:01.576Z,16.70
2018-12-05T00:41:01.753Z,17.50
2018-12-05T00:42:01.933Z,17.30
2018-12-05T00:43:02.117Z,11.70
2018-12-05T00:44:02.294Z,14.50
2018-12-05T00:45:02.475Z,11.10
2018-12-05T00:46:02.653Z,12.10
2018-12-05T00:47:02.838Z,24.60
2018-12-05T00:48:03.014Z,30.70
2018-12-05T00:49:03.190Z,29.40
2018-12-05T00:50:03.368Z,56.60
2018-12-05T00:51:03.553Z,29.20
2018-12-05T00:52:03.734Z,44.60
2018-12-05T00:53:03.912Z,64.90
2018-12-05T00:54:04.095Z,24.30
2018-12-05T00:55:04.270Z,45.10
2018-12-05T00:56:04.463Z,37.90
2018-12-05T00:57:04.642Z,10.80
2018-12-05T00:58:04.829Z,18.30
2018-12-05T00:59:05.005Z,24.60
2018-12-05T01:00:05.184Z,11.00
2018-12-05T01:01:05.362Z,19.50
2018-12-05T01:02:05.536Z,38.30
2018-12-05T01:03:05.715Z,34.50
2018-12-05T01:04:05.897Z,20.00
2018-12-05T01:05:06.072Z,10.90
2018-12-05T01:06:06.249Z,10.60
2018-12-05T01:07:06.428Z,10.80
2018-12-05T01:08:06.605Z,11.00
2018-12-05T01:09:06.792Z,11.50
2018-12-05T01:10:06.968Z,14.80
2018-12-05T01:11:07.146Z,19.80
2018-12-05T01:12:07.334Z,19.70
2018-12-05T01:13:07.511Z,22.00
2018-12-05T01:14:07.692Z,20.40
2018-12-05T01:15:07.863Z,34.70
2018-12-05T01:16:08.042Z,10.70
2018-12-05T01:17:08.221Z,9.70
2018-12-05T01:18:08.407Z,9.10
2018-12-05T01:19:08.595Z,13.90
2018-12-05T01:20:08.764Z,11.10
2018-12-05T01:21:08.949Z,9.20
2018-12-05T01:22:09.130Z,9.20
2018-12-05T01:23:09.303Z,11.60
2018-12-05T01:24:09.493Z,9.80
2018-12-05T01:25:09.670Z,8.40
2018-12-05T01:26:09.848Z,9.60
2018-12-05T01:27:10.028Z,11.30
2018-12-05T01:28:10.200Z,84.50
2018-12-05T01:29:10.374Z,49.60
2018-12-05T01:30:10.561Z,15.50
2018-12-05T01:31:10.738Z,10.80
2018-12-05T01:32:10.920Z,17.90
2018-12-05T01:33:11.094Z,11.60
2018-12-05T01:34:11.279Z,10.50
2018-12-05T01:35:11.460Z,11.80
2018-12-05T01:36:11.639Z,8.50
2018-12-05T01:37:11.810Z,19.80
2018-12-05T01:38:11.991Z,27.80
2018-12-05T01:39:12.170Z,24.60
2018-12-05T01:40:12.345Z,15.10
2018-12-05T01:41:12.526Z,18.40
2018-12-05T01:42:12.701Z,65.00
2018-12-05T01:43:12.879Z,45.20
2018-12-05T01:44:13.059Z,66.20
2018-12-05T01:45:13.235Z,125.30
2018-12-05T01:46:13.414Z,132.30
2018-12-05T01:47:13.593Z,96.30
2018-12-05T01:48:13.773Z,49.00
2018-12-05T01:49:13.950Z,43.00
2018-12-05T01:50:14.139Z,22.60
2018-12-05T01:51:14.313Z,20.90
2018-12-05T01:52:14.495Z,17.10
2018-12-05T01:53:14.676Z,13.00
2018-12-05T01:54:14.857Z,25.50
2018-12-05T01:55:15.037Z,15.40
2018-12-05T01:56:15.217Z,15.60
2018-12-05T01:57:15.394Z,18.30
2018-12-05T01:58:15.574Z,78.20
2018-12-05T01:59:15.752Z,129.40
2018-12-05T02:00:15.942Z,194.70
2018-12-05T02:01:16.118Z,141.10
2018-12-05T02:02:16.297Z,82.70
2018-12-05T02:03:16.480Z,80.10
2018-12-05T02:04:16.657Z,111.40
2018-12-05T02:05:16.830Z,157.80
2018-12-05T02:06:17.011Z,143.10
2018-12-05T02:07:17.189Z,52.50
2018-12-05T02:08:17.367Z,24.10
2018-12-05T02:09:17.552Z,100.40
2018-12-05T02:10:17.742Z,151.70
2018-12-05T02:11:17.924Z,144.10
2018-12-05T02:12:18.099Z,162.40
2018-12-05T02:13:18.280Z,150.20
2018-12-05T02:14:18.459Z,128.00
2018-12-05T02:15:18.631Z,86.40
2018-12-05T02:16:18.812Z,107.60
2018-12-05T02:17:18.995Z,42.60
2018-12-05T02:18:19.179Z,116.50
2018-12-05T02:19:19.358Z,70.00
2018-12-05T02:20:19.531Z,61.10
2018-12-05T02:21:19.715Z,44.50
2018-12-05T02:22:19.890Z,50.20
2018-12-05T02:23:20.063Z,29.50
2018-12-05T02:24:20.240Z,15.70
2018-12-05T02:25:20.427Z,33.60
2018-12-05T02:26:20.609Z,98.00
2018-12-05T02:27:20.873Z,57.90
2018-12-05T02:28:20.967Z,100.70
2018-12-05T02:29:21.151Z,78.50
2018-12-05T02:30:21.328Z,85.30
2018-12-05T02:31:21.508Z,52.40
2018-12-05T02:32:21.681Z,19.00
2018-12-05T02:33:21.868Z,13.70
2018-12-05T02:34:22.041Z,56.10
2018-12-05T02:35:22.229Z,67.70
2018-12-05T02:36:22.412Z,28.60
2018-12-05T02:37:22.587Z,31.30
2018-12-05T02:38:22.763Z,75.60
2018-12-05T02:39:22.938Z,101.40
2018-12-05T02:40:23.126Z,159.90
2018-12-05T02:41:23.304Z,107.90
2018-12-05T02:42:23.486Z,74.90
2018-12-05T02:43:23.666Z,118.00
2018-12-05T02:44:23.851Z,53.30
2018-12-05T02:45:24.016Z,152.40
2018-12-05T02:46:24.201Z,101.00
2018-12-05T02:47:24.378Z,59.80
2018-12-05T02:48:24.548Z,118.60
2018-12-05T02:49:24.728Z,161.10
2018-12-05T02:50:24.911Z,77.30
2018-12-05T02:51:25.087Z,38.60
2018-12-05T02:52:25.266Z,115.90
2018-12-05T02:53:25.444Z,337.80
2018-12-05T02:54:25.628Z,264.00
2018-12-05T02:55:25.807Z,36.90
2018-12-05T02:56:25.986Z,12.30
2018-12-05T02:57:26.166Z,191.20
2018-12-05T02:58:26.344Z,81.70
2018-12-05T02:59:26.525Z,74.30
2018-12-05T03:00:26.706Z,137.60
2018-12-05T03:01:26.883Z,106.80
2018-12-05T03:02:27.055Z,179.20
2018-12-05T03:03:27.237Z,215.70
2018-12-05T03:04:27.411Z,238.60
2018-12-05T03:05:27.590Z,254.80
2018-12-05T03:06:27.769Z,120.20
2018-12-05T03:07:27.947Z,22.10
2018-12-05T03:08:28.124Z,86.40
2018-12-05T03:09:28.309Z,234.30
2018-12-05T03:10:28.485Z,157.60
2018-12-05T03:11:28.661Z,51.80
2018-12-05T03:12:28.847Z,35.20
2018-12-05T03:13:29.022Z,88.00
2018-12-05T03:14:29.199Z,63.60
2018-12-05T03:15:29.374Z,59.60
2018-12-05T03:16:29.559Z,60.40
2018-12-05T03:17:29.739Z,73.10
2018-12-05T03:18:29.918Z,84.70
2018-12-05T03:19:30.092Z,36.30
2018-12-05T03:20:30.272Z,66.40
2018-12-05T03:21:30.450Z,90.60
2018-12-05T03:22:30.628Z,185.30
2018-12-05T03:23:30.811Z,162.40
2018-12-05T03:24:30.985Z,130.00
2018-12-05T03:25:31.170Z,116.20
2018-12-05T03:26:31.343Z,66.10
2018-12-05T03:27:31.517Z,44.30
2018-12-05T03:28:31.697Z,45.30
2018-12-05T03:29:31.873Z,23.50
2018-12-05T03:30:32.055Z,22.60
2018-12-05T03:31:32.228Z,31.40
2018-12-05T03:32:32.411Z,32.90
2018-12-05T03:33:32.580Z,11.50
2018-12-05T03:34:32.756Z,16.70
2018-12-05T03:35:32.945Z,13.60
2018-12-05T03:36:33.128Z,14.90
2018-12-05T03:37:33.310Z,11.40
2018-12-05T03:38:33.483Z,22.10
2018-12-05T03:39:33.656Z,24.50
2018-12-05T03:40:33.850Z,36.40
2018-12-05T03:41:34.024Z,50.10
2018-12-05T03:42:34.203Z,33.80
2018-12-05T03:43:34.384Z,25.20
2018-12-05T03:44:34.563Z,38.40
2018-12-05T03:45:34.741Z,93.30
2018-12-05T03:46:34.921Z,65.10
2018-12-05T03:47:35.110Z,93.60
2018-12-05T03:48:35.279Z,93.80
2018-12-05T03:49:35.457Z,84.20
2018-12-05T03:50:35.646Z,16.00
2018-12-05T03:51:35.820Z,76.80
2018-12-05T03:52:36.004Z,79.30
2018-12-05T03:53:36.177Z,18.30
2018-12-05T03:54:36.379Z,25.30
2018-12-05T03:55:36.545Z,16.30
2018-12-05T03:56:36.724Z,87.70
2018-12-05T03:57:36.902Z,142.40
2018-12-05T03:58:37.095Z,101.50
2018-12-05T03:59:37.264Z,111.00
2018-12-05T04:00:37.434Z,127.80
2018-12-05T04:01:37.613Z,143.20
2018-12-05T04:02:37.796Z,81.40
2018-12-05T04:03:37.973Z,62.00
2018-12-05T04:04:38.160Z,85.40
2018-12-05T04:05:38.346Z,137.90
2018-12-05T04:06:38.521Z,107.70
2018-12-05T04:07:38.700Z,76.40
2018-12-05T04:08:38.888Z,76.80
2018-12-05T04:09:39.059Z,65.20
2018-12-05T04:10:39.237Z,73.00
2018-12-05T04:11:39.416Z,56.90
2018-12-05T04:12:40.799Z,66.40
2018-12-05T04:13:39.775Z,61.30
2018-12-05T04:14:39.945Z,50.40
2018-12-05T04:15:40.132Z,50.60
2018-12-05T04:16:40.304Z,53.30
2018-12-05T04:17:40.488Z,29.60
2018-12-05T04:18:40.654Z,38.50
2018-12-05T04:19:40.840Z,34.50
2018-12-05T04:20:41.020Z,42.20
2018-12-05T04:21:41.199Z,30.70
2018-12-05T04:22:41.373Z,91.40
2018-12-05T04:23:41.558Z,61.60
2018-12-05T04:24:41.739Z,51.60
2018-12-05T04:25:41.922Z,53.90
2018-12-05T04:26:42.094Z,63.70
2018-12-05T04:27:42.272Z,68.90
2018-12-05T04:28:42.451Z,95.10
2018-12-05T04:29:42.634Z,170.60
2018-12-05T04:30:42.810Z,83.80
2018-12-05T04:31:42.995Z,98.90
2018-12-05T04:32:43.175Z,88.40
2018-12-05T04:33:43.357Z,130.50
2018-12-05T04:34:43.529Z,118.50
2018-12-05T04:35:43.711Z,93.10
2018-12-05T04:36:43.893Z,42.90
2018-12-05T04:37:44.074Z,38.50
2018-12-05T04:38:44.254Z,50.50
2018-12-05T04:39:44.428Z,40.60
2018-12-05T04:40:44.604Z,41.60
2018-12-05T04:41:44.786Z,30.90
2018-12-05T04:42:44.964Z,39.80
2018-12-05T04:43:45.136Z,56.80
2018-12-05T04:44:45.318Z,83.00
2018-12-05T04:45:45.491Z,66.70
2018-12-05T04:46:45.669Z,70.60
2018-12-05T04:47:45.853Z,61.70
2018-12-05T04:48:46.025Z,52.90
2018-12-05T04:49:46.199Z,56.00
2018-12-05T04:50:46.383Z,42.40
2018-12-05T04:51:46.560Z,45.10
2018-12-05T04:52:46.744Z,30.40
2018-12-05T04:53:46.924Z,43.30
2018-12-05T04:54:47.102Z,34.50
2018-12-05T04:55:47.283Z,52.70
2018-12-05T04:56:47.457Z,51.30
2018-12-05T04:57:47.634Z,65.00
2018-12-05T04:58:47.816Z,57.70
2018-12-05T04:59:48.005Z,52.30
2018-12-05T05:00:48.171Z,33.30
2018-12-05T05:01:48.348Z,41.90
2018-12-05T05:02:48.612Z,52.10
2018-12-05T05:03:48.706Z,54.80
2018-12-05T05:04:48.893Z,51.00
2018-12-05T05:05:49.074Z,66.20
2018-12-05T05:06:49.253Z,58.80
2018-12-05T05:07:49.432Z,63.40
2018-12-05T05:08:49.610Z,34.40
2018-12-05T05:09:49.801Z,25.00
2018-12-05T05:10:49.962Z,24.30
2018-12-05T05:11:50.145Z,40.10
2018-12-05T05:12:50.315Z,47.80
2018-12-05T05:13:50.495Z,34.10
2018-12-05T05:14:50.677Z,38.60
2018-12-05T05:15:50.856Z,89.60
2018-12-05T05:16:51.036Z,84.30
2018-12-05T05:17:51.214Z,70.00
2018-12-05T05:18:51.387Z,67.60
2018-12-05T05:19:51.567Z,69.30
2018-12-05T05:20:51.745Z,76.00
2018-12-05T05:21:51.927Z,44.60
2018-12-05T05:22:52.107Z,47.70
2018-12-05T05:23:52.281Z,56.90
2018-12-05T05:24:52.462Z,58.10
2018-12-05T05:25:52.644Z,81.40
2018-12-05T05:26:52.820Z,61.20
2018-12-05T05:27:53.001Z,74.20
2018-12-05T05:28:53.173Z,51.30
2018-12-05T05:29:53.357Z,56.80
2018-12-05T05:30:53.538Z,59.80
2018-12-05T05:31:53.724Z,133.20
2018-12-05T05:32:53.890Z,143.00
2018-12-05T05:33:54.071Z,97.80
2018-12-05T05:34:54.245Z,56.60
2018-12-05T05:35:54.443Z,47.30
2018-12-05T05:36:54.613Z,86.30
2018-12-05T05:37:54.790Z,51.50
2018-12-05T05:38:54.967Z,65.50
2018-12-05T05:39:55.145Z,111.70
2018-12-05T05:40:55.318Z,184.30
2018-12-05T05:41:55.495Z,230.60
2018-12-05T05:42:55.680Z,186.10
2018-12-05T05:43:55.857Z,109.40
2018-12-05T05:44:56.047Z,141.40
2018-12-05T05:45:56.235Z,112.00
2018-12-05T05:46:56.409Z,59.30
2018-12-05T05:47:56.592Z,110.70
2018-12-05T05:48:56.769Z,175.70
2018-12-05T05:49:56.949Z,201.50
2018-12-05T05:50:57.133Z,82.00
2018-12-05T05:51:57.306Z,76.40
2018-12-05T05:52:57.483Z,64.50
2018-12-05T05:53:57.662Z,83.90
2018-12-05T05:54:57.839Z,50.70
2018-12-05T05:55:58.019Z,63.10
2018-12-05T05:56:58.196Z,114.70
2018-12-05T05:57:58.429Z,63.10
2018-12-05T05:58:58.565Z,93.30
2018-12-05T05:59:58.744Z,118.80
2018-12-05T06:00:58.926Z,53.00
2018-12-05T06:01:59.113Z,67.70
2018-12-05T06:02:59.289Z,91.70
2018-12-05T06:03:59.465Z,168.50
2018-12-05T06:04:59.641Z,71.30
2018-12-05T06:05:59.824Z,77.10
2018-12-05T06:07:00.001Z,150.20
2018-12-05T06:08:00.178Z,80.00
2018-12-05T06:09:00.358Z,53.00
2018-12-05T06:10:00.541Z,35.70
2018-12-05T06:11:00.714Z,34.30
2018-12-05T06:12:00.890Z,36.60
2018-12-05T06:13:01.140Z,44.60
2018-12-05T06:14:01.244Z,35.60
2018-12-05T06:15:01.429Z,23.80
2018-12-05T06:16:01.606Z,26.80
2018-12-05T06:17:01.783Z,29.90
2018-12-05T06:18:01.963Z,81.00
2018-12-05T06:19:02.141Z,34.10
2018-12-05T06:20:02.322Z,60.40
2018-12-05T06:21:02.498Z,109.40
2018-12-05T06:22:02.675Z,57.00
2018-12-05T06:23:02.856Z,96.20
2018-12-05T06:24:03.040Z,69.60
2018-12-05T06:25:03.224Z,64.00
2018-12-05T06:26:03.396Z,75.40
2018-12-05T06:27:03.577Z,78.70
2018-12-05T06:28:03.746Z,82.60
2018-12-05T06:29:03.937Z,81.00
2018-12-05T06:30:04.114Z,33.70
2018-12-05T06:31:04.292Z,72.70
2018-12-05T06:32:04.472Z,45.40
2018-12-05T06:33:04.653Z,29.20
2018-12-05T06:34:04.830Z,28.70
2018-12-05T06:35:05.015Z,28.40
2018-12-05T06:36:05.194Z,30.20
2018-12-05T06:37:05.438Z,21.50
2018-12-05T06:38:05.583Z,20.90
2018-12-05T06:39:05.758Z,19.40
2018-12-05T06:40:05.941Z,29.00
2018-12-05T06:41:06.114Z,34.30
2018-12-05T06:42:06.299Z,23.50
2018-12-05T06:43:06.474Z,23.00
2018-12-05T06:44:06.655Z,215.20
2018-12-05T06:45:06.832Z,235.80
2018-12-05T06:46:07.094Z,317.80
2018-12-05T06:47:07.187Z,225.20
2018-12-05T06:48:07.368Z,74.40
2018-12-05T06:49:07.548Z,142.60
2018-12-05T06:50:07.725Z,99.80
2018-12-05T06:51:07.903Z,254.20
2018-12-05T06:52:08.090Z,90.50
2018-12-05T06:53:08.271Z,163.90
2018-12-05T06:54:08.453Z,74.40
2018-12-05T06:55:08.636Z,62.00
2018-12-05T06:56:08.815Z,25.40
2018-12-05T06:57:09.003Z,49.80
2018-12-05T06:58:09.179Z,28.50
2018-12-05T06:59:09.358Z,70.90
2018-12-05T07:00:09.537Z,76.60
2018-12-05T07:01:09.715Z,73.70
2018-12-05T07:02:09.893Z,142.60
2018-12-05T07:03:10.076Z,99.90
2018-12-05T07:04:10.253Z,163.00
2018-12-05T07:05:10.437Z,149.10
2018-12-05T07:06:10.611Z,51.40
2018-12-05T07:07:10.792Z,76.40
2018-12-05T07:08:10.969Z,70.00
2018-12-05T07:09:11.144Z,134.30
2018-12-05T07:10:11.339Z,60.30
2018-12-05T07:11:11.510Z,17.50
2018-12-05T07:12:11.690Z,39.80
2018-12-05T07:13:11.864Z,102.60
2018-12-05T07:14:12.047Z,71.60
2018-12-05T07:15:12.222Z,62.70
2018-12-05T07:16:12.402Z,21.40
2018-12-05T07:17:12.579Z,53.60
2018-12-05T07:18:12.760Z,48.20
2018-12-05T07:19:12.940Z,89.50
2018-12-05T07:20:13.121Z,52.30
2018-12-05T07:21:13.298Z,54.20
2018-12-05T07:22:13.471Z,120.00
2018-12-05T07:23:13.658Z,45.00
2018-12-05T07:24:13.852Z,19.60
2018-12-05T07:25:14.016Z,82.40
2018-12-05T07:26:14.197Z,26.90
2018-12-05T07:27:14.377Z,66.20
2018-12-05T07:28:14.560Z,97.10
2018-12-05T07:29:14.737Z,19.90
2018-12-05T07:30:14.919Z,34.50
2018-12-05T07:31:15.097Z,64.70
2018-12-05T07:32:15.277Z,70.30
2018-12-05T07:33:15.454Z,33.10
2018-12-05T07:34:15.638Z,53.10
2018-12-05T07:35:15.812Z,52.40
2018-12-05T07:36:15.987Z,79.00
2018-12-05T07:37:16.168Z,96.00
2018-12-05T07:38:19.450Z,137.70
2018-12-05T07:39:16.526Z,322.70
2018-12-05T07:40:16.708Z,203.10
2018-12-05T07:41:16.884Z,203.50
2018-12-05T07:42:17.066Z,224.50
2018-12-05T07:43:17.243Z,265.60
2018-12-05T07:44:17.427Z,226.50
2018-12-05T07:45:17.610Z,177.00
2018-12-05T07:46:17.795Z,170.00
2018-12-05T07:47:17.962Z,107.80
2018-12-05T07:48:18.143Z,77.90
2018-12-05T07:49:18.321Z,75.00
2018-12-05T07:50:18.501Z,104.00
2018-12-05T07:51:18.674Z,179.00
2018-12-05T07:52:18.855Z,229.00
2018-12-05T07:53:19.037Z,218.40
2018-12-05T07:54:19.214Z,254.90
2018-12-05T07:55:19.389Z,327.90
2018-12-05T07:56:19.572Z,325.30
2018-12-05T07:57:19.750Z,232.20
2018-12-05T07:58:19.927Z,416.70
2018-12-05T07:59:20.106Z,286.40
2018-12-05T08:00:20.290Z,312.80
2018-12-05T08:01:20.470Z,214.90
2018-12-05T08:02:20.658Z,62.20
2018-12-05T08:03:20.834Z,38.00
2018-12-05T08:04:21.011Z,94.30
2018-12-05T08:05:21.191Z,269.00
2018-12-05T08:06:21.369Z,407.30
2018-12-05T08:07:21.545Z,372.00
2018-12-05T08:08:21.721Z,366.60
2018-12-05T08:09:21.898Z,337.40
2018-12-05T08:10:22.081Z,310.60
2018-12-05T08:11:22.265Z,385.90
2018-12-05T08:12:22.438Z,291.50
2018-12-05T08:13:22.614Z,122.10
2018-12-05T08:14:22.794Z,108.60
2018-12-05T08:15:22.971Z,186.40
2018-12-05T08:16:23.152Z,242.40
2018-12-05T08:17:23.330Z,192.60
2018-12-05T08:18:23.508Z,268.50
2018-12-05T08:19:23.694Z,268.20
2018-12-05T08:20:23.884Z,307.30
2018-12-05T08:21:24.091Z,300.50
2018-12-05T08:22:24.239Z,309.40
2018-12-05T08:23:24.428Z,161.90
2018-12-05T08:24:24.601Z,208.80
2018-12-05T08:25:24.785Z,381.90
2018-12-05T08:26:24.976Z,306.80
2018-12-05T08:27:25.149Z,182.90
2018-12-05T08:28:25.328Z,224.80
2018-12-05T08:29:25.515Z,297.50
2018-12-05T08:30:25.693Z,255.30
2018-12-05T08:31:25.868Z,207.40
2018-12-05T08:32:26.055Z,240.80
2018-12-05T08:33:26.238Z,187.60
2018-12-05T08:34:26.412Z,127.90
2018-12-05T08:35:26.592Z,115.30
2018-12-05T08:36:26.775Z,308.50
2018-12-05T08:37:26.953Z,314.90
2018-12-05T08:38:27.135Z,238.20
2018-12-05T08:39:27.313Z,266.00
2018-12-05T08:40:27.501Z,365.00
2018-12-05T08:41:27.677Z,535.10
2018-12-05T08:42:27.869Z,334.50
2018-12-05T08:43:28.047Z,118.60
2018-12-05T08:44:28.221Z,21.00
2018-12-05T08:45:28.399Z,102.90
2018-12-05T08:46:28.579Z,163.70
2018-12-05T08:47:33.620Z,344.50
2018-12-05T08:48:28.944Z,176.50
2018-12-05T08:49:29.124Z,45.10
2018-12-05T08:50:29.310Z,26.70
2018-12-05T08:51:29.483Z,21.20
2018-12-05T08:52:29.667Z,170.80
2018-12-05T08:53:29.843Z,130.80
2018-12-05T08:54:30.037Z,33.60
2018-12-05T08:55:30.220Z,15.70
2018-12-05T08:56:30.395Z,11.80
2018-12-05T08:57:30.577Z,15.40
2018-12-05T08:58:30.760Z,13.80
2018-12-05T08:59:30.939Z,10.40
2018-12-05T09:00:31.120Z,19.40
2018-12-05T09:01:31.301Z,10.30
2018-12-05T09:02:31.479Z,10.50
2018-12-05T09:03:31.661Z,11.40
2018-12-05T09:04:31.849Z,16.70
2018-12-05T09:05:32.022Z,11.80
2018-12-05T09:06:32.205Z,14.40
2018-12-05T09:07:32.381Z,12.50
2018-12-05T09:08:32.572Z,10.90
2018-12-05T09:09:32.748Z,11.10
2018-12-05T09:10:32.938Z,8.80
2018-12-05T09:11:33.117Z,10.60
2018-12-05T09:12:33.297Z,11.10
2018-12-05T09:13:33.476Z,9.80
2018-12-05T09:14:33.649Z,9.30
2018-12-05T09:15:33.837Z,8.70
2018-12-05T09:16:34.023Z,13.20
2018-12-05T09:17:34.209Z,10.00
2018-12-05T09:18:34.388Z,11.00
2018-12-05T09:19:34.572Z,10.30
2018-12-05T09:20:34.768Z,8.70
2018-12-05T09:21:34.948Z,10.00
2018-12-05T09:22:41.253Z,9.40
2018-12-05T09:23:35.313Z,10.00
2018-12-05T09:24:35.493Z,10.10
2018-12-05T09:25:35.678Z,12.30
2018-12-05T09:26:35.854Z,10.20
2018-12-05T09:27:36.037Z,12.10
2018-12-05T09:28:36.219Z,10.30
2018-12-05T09:29:36.398Z,14.90
2018-12-05T09:30:36.577Z,12.00
2018-12-05T09:31:36.770Z,11.70
2018-12-05T09:32:36.945Z,10.40
2018-12-05T09:33:37.121Z,11.10
2018-12-05T09:34:37.299Z,13.50
2018-12-05T09:35:37.481Z,13.80
2018-12-05T09:36:37.742Z,10.80
2018-12-05T09:37:37.938Z,12.50
2018-12-05T09:38:38.088Z,125.10
2018-12-05T09:39:38.273Z,199.90
2018-12-05T09:40:38.357Z,322.10
2018-12-05T09:41:38.532Z,325.10
2018-12-05T09:42:39.696Z,49.60
2018-12-05T09:43:38.897Z,67.90
2018-12-05T09:44:39.079Z,24.10
2018-12-05T09:45:39.258Z,15.90
2018-12-05T09:46:39.440Z,13.10
2018-12-05T09:47:39.620Z,14.50
2018-12-05T09:48:39.809Z,58.70
2018-12-05T09:49:39.984Z,56.30
2018-12-05T09:50:40.171Z,78.70
2018-12-05T09:51:40.348Z,91.20
2018-12-05T09:52:40.532Z,127.40
2018-12-05T09:53:40.724Z,25.50
2018-12-05T09:54:40.894Z,57.00
2018-12-05T09:55:41.083Z,260.40
2018-12-05T09:56:41.262Z,23.90
2018-12-05T09:57:41.442Z,86.60
2018-12-05T09:58:41.622Z,155.40
2018-12-05T09:59:41.808Z,269.60
2018-12-05T10:00:41.985Z,236.00
2018-12-05T10:01:42.168Z,194.10
2018-12-05T10:02:42.355Z,169.80
2018-12-05T10:03:42.538Z,143.40
2018-12-05T10:04:42.719Z,116.30
2018-12-05T10:05:42.901Z,103.60
2018-12-05T10:06:43.080Z,262.00
2018-12-05T10:07:43.269Z,238.00
2018-12-05T10:08:43.447Z,206.40
2018-12-05T10:09:43.652Z,146.50
2018-12-05T10:10:43.816Z,111.50
2018-12-05T10:11:43.990Z,122.10
2018-12-05T10:12:44.167Z,47.20
2018-12-05T10:13:44.342Z,310.40
2018-12-05T10:14:44.550Z,35.60
2018-12-05T10:15:44.731Z,80.80
2018-12-05T10:16:44.910Z,35.20
2018-12-05T10:17:45.093Z,118.40
2018-12-05T10:18:45.275Z,137.30
2018-12-05T10:19:45.454Z,118.20
2018-12-05T10:20:45.634Z,34.40
2018-12-05T10:21:45.813Z,60.60
2018-12-05T10:22:46.012Z,36.70
2018-12-05T10:23:46.175Z,44.10
2018-12-05T10:24:46.363Z,69.60
2018-12-05T10:25:46.537Z,33.90
2018-12-05T10:26:46.717Z,40.60
2018-12-05T10:27:46.898Z,23.00
2018-12-05T10:28:47.089Z,23.00
2018-12-05T10:29:47.275Z,21.00
2018-12-05T10:30:47.456Z,21.20
2018-12-05T10:31:47.635Z,21.00
2018-12-05T10:32:47.826Z,18.30
2018-12-05T10:33:48.011Z,30.50
2018-12-05T10:34:48.190Z,52.40
2018-12-05T10:35:48.384Z,24.30
2018-12-05T10:36:48.552Z,16.80
2018-12-05T10:37:48.823Z,24.20
2018-12-05T10:38:48.925Z,37.20
2018-12-05T10:39:49.105Z,44.80
2018-12-05T10:40:49.289Z,59.40
2018-12-05T10:41:49.466Z,32.70
2018-12-05T10:42:49.647Z,24.50
2018-12-05T10:43:49.826Z,18.90
2018-12-05T10:44:50.011Z,18.70
2018-12-05T10:45:50.189Z,20.00
2018-12-05T10:46:50.369Z,26.30
2018-12-05T10:47:50.550Z,27.10
2018-12-05T10:48:50.742Z,17.60
2018-12-05T10:49:50.911Z,35.10
2018-12-05T10:50:51.088Z,81.50
2018-12-05T10:51:51.270Z,23.70
2018-12-05T10:52:51.444Z,31.70
2018-12-05T10:53:51.625Z,20.30
2018-12-05T10:54:51.805Z,20.00
2018-12-05T10:55:51.999Z,20.90
2018-12-05T10:56:52.161Z,100.60
2018-12-05T10:57:52.346Z,61.70
2018-12-05T10:58:52.520Z,39.00
2018-12-05T10:59:52.704Z,48.40
2018-12-05T11:00:52.882Z,27.30
2018-12-05T11:01:53.065Z,19.10
2018-12-05T11:02:53.247Z,18.40
2018-12-05T11:03:53.430Z,21.50
2018-12-05T11:04:53.612Z,47.10
2018-12-05T11:05:53.793Z,44.20
2018-12-05T11:06:53.977Z,92.90
2018-12-05T11:07:54.151Z,123.80
2018-12-05T11:08:54.344Z,39.90
2018-12-05T11:09:54.531Z,28.70
2018-12-05T11:10:54.714Z,18.90
2018-12-05T11:11:54.893Z,20.70
2018-12-05T11:12:55.073Z,18.90
2018-12-05T11:13:55.259Z,23.10
2018-12-05T11:14:55.446Z,20.30
2018-12-05T11:15:55.623Z,17.30
2018-12-05T11:16:55.804Z,21.90
2018-12-05T11:17:55.982Z,17.00
2018-12-05T11:18:56.161Z,18.80
2018-12-05T11:19:56.342Z,18.20
2018-12-05T11:20:56.522Z,22.10
2018-12-05T11:21:56.702Z,19.40
2018-12-05T11:22:56.883Z,30.20
2018-12-05T11:23:57.066Z,26.40
2018-12-05T11:24:57.246Z,20.50
2018-12-05T11:25:57.422Z,28.00
2018-12-05T11:26:57.607Z,28.60
2018-12-05T11:27:57.793Z,27.60
2018-12-05T11:28:57.974Z,22.60
2018-12-05T11:29:58.153Z,21.70
2018-12-05T11:30:58.336Z,21.10
2018-12-05T11:31:58.522Z,23.40
2018-12-05T11:32:58.705Z,18.90
2018-12-05T11:33:58.887Z,21.60
2018-12-05T11:34:59.070Z,24.00
2018-12-05T11:35:59.254Z,17.90
2018-12-05T11:36:59.438Z,16.20
2018-12-05T11:37:59.617Z,18.50
2018-12-05T11:38:59.799Z,20.20
2018-12-05T11:39:59.978Z,21.80
2018-12-05T11:41:00.158Z,18.80
2018-12-05T11:42:00.342Z,16.20
2018-12-05T11:43:00.524Z,16.40
2018-12-05T11:44:00.704Z,14.40
2018-12-05T11:45:00.883Z,17.90
2018-12-05T11:46:01.069Z,18.90
2018-12-05T11:47:01.249Z,17.90
2018-12-05T11:48:01.420Z,18.80
2018-12-05T11:49:02.491Z,17.90
2018-12-05T11:50:01.770Z,17.50
2018-12-05T11:51:01.954Z,13.80
2018-12-05T11:52:02.137Z,16.70
2018-12-05T11:53:02.328Z,16.50
2018-12-05T11:54:02.508Z,19.60
2018-12-05T11:55:02.688Z,18.10
2018-12-05T11:56:02.873Z,18.40
2018-12-05T11:57:03.053Z,27.50
2018-12-05T11:58:03.234Z,18.50
2018-12-05T11:59:03.419Z,26.10
2018-12-05T12:00:03.595Z,20.40
2018-12-05T12:01:03.777Z,19.60
2018-12-05T12:02:03.960Z,19.60
2018-12-05T12:03:04.145Z,18.80
2018-12-05T12:04:04.324Z,17.80
2018-12-05T12:05:04.504Z,14.20
2018-12-05T12:06:04.686Z,18.80
2018-12-05T12:07:04.878Z,14.30
2018-12-05T12:08:05.059Z,15.80
2018-12-05T12:09:05.239Z,16.20
2018-12-05T12:10:05.418Z,16.60
2018-12-05T12:11:05.603Z,16.90
2018-12-05T12:12:05.782Z,16.40
2018-12-05T12:13:05.975Z,15.10
2018-12-05T12:14:06.150Z,14.40
2018-12-05T12:15:06.338Z,15.10
2018-12-05T12:16:06.520Z,13.20
2018-12-05T12:17:06.699Z,14.70
2018-12-05T12:18:06.890Z,12.00
2018-12-05T12:19:07.063Z,11.20
2018-12-05T12:20:07.248Z,16.70
2018-12-05T12:21:07.428Z,15.80
2018-12-05T12:22:07.612Z,14.40
2018-12-05T12:23:07.795Z,17.00
2018-12-05T12:24:07.987Z,12.70
2018-12-05T12:25:08.167Z,9.70
2018-12-05T12:26:08.343Z,12.60
2018-12-05T12:27:08.527Z,13.80
2018-12-05T12:28:08.710Z,12.90
2018-12-05T12:29:08.891Z,14.00
2018-12-05T12:30:15.714Z,16.10
2018-12-05T12:31:09.265Z,16.60
2018-12-05T12:32:09.457Z,18.50
2018-12-05T12:33:09.644Z,13.40
2018-12-05T12:34:09.824Z,16.90
2018-12-05T12:35:10.005Z,16.70
2018-12-05T12:36:10.198Z,14.50
2018-12-05T12:37:10.382Z,12.60
2018-12-05T12:38:10.570Z,12.80
2018-12-05T12:39:10.752Z,16.80
2018-12-05T12:40:10.940Z,16.20
2018-12-05T12:41:11.123Z,15.00
2018-12-05T12:42:11.306Z,13.60
2018-12-05T12:43:11.491Z,15.30
2018-12-05T12:44:11.681Z,13.10
2018-12-05T12:45:11.858Z,13.30
2018-12-05T12:46:12.051Z,14.30
2018-12-05T12:47:12.235Z,10.40
2018-12-05T12:48:12.410Z,13.30
2018-12-05T12:49:12.593Z,11.10
2018-12-05T12:50:12.784Z,12.90